Aérodrome :
LOGIN :

S'inscrire | Disclaimer

   EN    FR    IT 

 










Légende :    VFR   VFR Marginal   IFR   IFR Intensif   IFR Très Intensif
Visi : 
Plafond : 
>= 8 km
>= 3000ft
5 à 8 km
1000 à 3000 ft
1500m à 5 km
500 à 1000 ft
800 à 1500m
200 à 500 ft
< 800m
< 200 ft
Symboles :   Orages  Brouillard  Fortes neiges  Fortes précipitations  Vent > 20 kt
SIGMETs :   Divers  Orages  Givrage  Turbulence  Onde Orograph.  Cendres Volcan.






- Altitude de l'aérodrome : 17 ft
- Code IATA : GRS


LIRS - Grosseto

DERNIER METAR :
  • 272155Z 06003KT 5000 BR NSC 05/03 Q1024

METARs EXPIRÉS :
  • 272055Z 05003KT 5000 BR NSC 07/04 Q1024 RMK SKC VIS MIN 5000 WIND THR03 02004KT WIND THR21 02004KT WHT
  • 271955Z 35002KT 7000 FEW001 07/06 Q1023 RMK FEW VIS MIN 7000 WIND THR03 33002KT WIND THR21 35002KT WHT
  • 271855Z 08001KT 8000 NSC 08/07 Q1023 RMK FEW FEW200 VIS MIN 8000 WIND THR03 11002KT WIND THR21 09002KT BLU

TAF TAF LIRS
Valide du 27 à 21h jusqu'au 28 à 06h UTC


272000Z 2721/2806 03008KT 7000 FEW002
BECMG 2800/2802 5000 BR



MET'MAP, la Météo Aéronautique d'un coup d'oeil ! - Copyright ORBIFLY Décembre 2007 - Disclaimer

ORBIFLY MET'MAP TEAM :

Programmation & Développement : Alexandra Zaïnal
Sur une idée originale de : Baudouin d'Aumeries
Assistance à la programmation : Marc-Olivier Méhu
Soutien technique & logistique : Manuel Goepfert

Contact : metmap@orbifly.com




SOURCES & CREDITS :

   NOAA